createdAt,value
2023-04-15T00:00:29.381Z,0.00
2023-04-15T00:01:29.334Z,0.00
2023-04-15T00:02:29.378Z,0.00
2023-04-15T00:03:29.374Z,0.00
2023-04-15T00:04:29.298Z,0.00
2023-04-15T00:05:29.172Z,0.00
2023-04-15T00:06:29.143Z,0.00
2023-04-15T00:07:29.088Z,0.00
2023-04-15T00:08:29.043Z,0.00
2023-04-15T00:09:29.004Z,0.00
2023-04-15T00:10:28.970Z,0.00
2023-04-15T00:11:28.940Z,0.00
2023-04-15T00:12:28.908Z,0.00
2023-04-15T00:13:28.833Z,0.00
2023-04-15T00:14:28.797Z,0.00
2023-04-15T00:15:28.754Z,0.00
2023-04-15T00:16:28.744Z,0.00
2023-04-15T00:17:28.705Z,0.00
2023-04-15T00:18:28.641Z,0.00
2023-04-15T00:19:28.597Z,0.00
2023-04-15T00:20:28.548Z,0.00
2023-04-15T00:21:28.503Z,0.00
2023-04-15T00:22:28.463Z,0.00
2023-04-15T00:23:28.425Z,0.00
2023-04-15T00:24:28.421Z,0.00
2023-04-15T00:25:28.344Z,0.00
2023-04-15T00:26:28.294Z,0.00
2023-04-15T00:27:28.253Z,0.00
2023-04-15T00:28:28.219Z,0.00
2023-04-15T00:29:28.180Z,0.00
2023-04-15T00:30:28.187Z,0.00
2023-04-15T00:31:28.104Z,0.00
2023-04-15T00:32:28.057Z,0.00
2023-04-15T00:33:28.011Z,0.00
2023-04-15T00:34:27.970Z,0.00
2023-04-15T00:35:27.927Z,0.00
2023-04-15T00:36:27.899Z,0.00
2023-04-15T00:37:27.845Z,0.00
2023-04-15T00:38:27.803Z,0.00
2023-04-15T00:39:27.768Z,0.00
2023-04-15T00:40:27.717Z,0.00
2023-04-15T00:41:27.678Z,0.00
2023-04-15T00:42:27.648Z,0.00
2023-04-15T00:43:27.630Z,0.00
2023-04-15T00:44:27.552Z,0.00
2023-04-15T00:45:27.515Z,0.00
2023-04-15T00:46:27.474Z,0.00
2023-04-15T00:47:27.468Z,0.00
2023-04-15T00:48:27.415Z,0.00
2023-04-15T00:49:27.350Z,0.00
2023-04-15T00:50:27.340Z,0.00
2023-04-15T00:51:27.263Z,0.00
2023-04-15T00:52:27.225Z,0.00
2023-04-15T00:53:27.209Z,0.00
2023-04-15T00:54:27.151Z,0.00
2023-04-15T00:55:27.103Z,0.00
2023-04-15T00:56:27.063Z,0.00
2023-04-15T00:57:27.048Z,0.00
2023-04-15T00:58:26.986Z,0.00
2023-04-15T00:59:26.938Z,0.00
2023-04-15T01:00:26.984Z,0.00
2023-04-15T01:01:26.877Z,0.00
2023-04-15T01:02:26.921Z,0.00
2023-04-15T01:03:26.901Z,0.00
2023-04-15T01:04:26.760Z,0.00
2023-04-15T01:05:26.679Z,0.00
2023-04-15T01:06:26.636Z,0.00
2023-04-15T01:07:26.603Z,0.00
2023-04-15T01:08:26.554Z,0.00
2023-04-15T01:09:26.528Z,0.00
2023-04-15T01:10:26.470Z,0.00
2023-04-15T01:11:26.438Z,0.00
2023-04-15T01:12:26.399Z,0.00
2023-04-15T01:13:26.352Z,0.00
2023-04-15T01:14:26.339Z,0.00
2023-04-15T01:15:26.290Z,0.00
2023-04-15T01:16:26.266Z,0.00
2023-04-15T01:17:26.192Z,0.00
2023-04-15T01:18:26.152Z,0.00
2023-04-15T01:19:26.111Z,0.00
2023-04-15T01:20:26.057Z,0.00
2023-04-15T01:21:26.065Z,0.00
2023-04-15T01:22:25.967Z,0.00
2023-04-15T01:23:25.940Z,0.00
2023-04-15T01:24:25.893Z,0.00
2023-04-15T01:25:25.865Z,0.00
2023-04-15T01:26:25.801Z,0.00
2023-04-15T01:27:25.777Z,0.00
2023-04-15T01:28:25.733Z,0.00
2023-04-15T01:29:25.685Z,0.00
2023-04-15T01:30:25.642Z,0.00
2023-04-15T01:31:25.669Z,0.00
2023-04-15T01:32:25.593Z,0.00
2023-04-15T01:33:25.523Z,0.00
2023-04-15T01:34:25.485Z,0.00
2023-04-15T01:35:25.431Z,0.00
2023-04-15T01:36:25.392Z,0.00
2023-04-15T01:37:25.350Z,0.00
2023-04-15T01:38:25.307Z,0.00
2023-04-15T01:39:25.272Z,0.00
2023-04-15T01:40:25.234Z,0.00
2023-04-15T01:41:25.182Z,0.00
2023-04-15T01:42:25.159Z,0.00
2023-04-15T01:43:25.101Z,0.00
2023-04-15T01:44:25.059Z,0.00
2023-04-15T01:45:25.034Z,0.00
2023-04-15T01:46:25.026Z,0.00
2023-04-15T01:47:24.955Z,0.00
2023-04-15T01:48:24.895Z,0.00
2023-04-15T01:49:24.858Z,0.00
2023-04-15T01:50:24.813Z,0.00
2023-04-15T01:51:24.772Z,0.00
2023-04-15T01:52:24.745Z,0.00
2023-04-15T01:53:24.686Z,0.00
2023-04-15T01:54:24.651Z,0.00
2023-04-15T01:55:24.609Z,0.00
2023-04-15T01:56:24.573Z,0.00
2023-04-15T01:57:24.532Z,0.00
2023-04-15T01:58:24.485Z,0.00
2023-04-15T01:59:24.442Z,0.00
2023-04-15T02:00:24.398Z,0.00
2023-04-15T02:01:24.463Z,0.00
2023-04-15T02:02:24.408Z,0.00
2023-04-15T02:03:24.312Z,0.00
2023-04-15T02:04:24.230Z,0.00
2023-04-15T02:05:24.194Z,0.00
2023-04-15T02:06:24.148Z,0.00
2023-04-15T02:07:24.116Z,0.00
2023-04-15T02:08:24.065Z,0.00
2023-04-15T02:09:24.042Z,0.00
2023-04-15T02:10:23.976Z,0.00
2023-04-15T02:11:23.938Z,0.00
2023-04-15T02:12:23.895Z,0.00
2023-04-15T02:13:23.852Z,0.00
2023-04-15T02:14:23.814Z,0.00
2023-04-15T02:15:23.796Z,0.00
2023-04-15T02:16:23.762Z,0.00
2023-04-15T02:17:23.718Z,0.00
2023-04-15T02:18:23.695Z,0.00
2023-04-15T02:19:23.611Z,0.00
2023-04-15T02:20:23.562Z,0.00
2023-04-15T02:21:23.529Z,0.00
2023-04-15T02:22:23.473Z,0.00
2023-04-15T02:23:23.442Z,0.00
2023-04-15T02:24:23.395Z,0.00
2023-04-15T02:25:23.354Z,0.00
2023-04-15T02:26:23.307Z,0.00
2023-04-15T02:27:23.303Z,0.00
2023-04-15T02:28:23.226Z,0.00
2023-04-15T02:29:23.185Z,0.00
2023-04-15T02:30:23.137Z,0.00
2023-04-15T02:31:23.145Z,0.00
2023-04-15T02:32:23.091Z,0.00
2023-04-15T02:33:23.029Z,0.00
2023-04-15T02:34:22.969Z,0.00
2023-04-15T02:35:22.935Z,0.00
2023-04-15T02:36:22.900Z,0.00
2023-04-15T02:37:22.845Z,0.00
2023-04-15T02:38:22.798Z,0.00
2023-04-15T02:39:22.768Z,0.00
2023-04-15T02:40:22.780Z,0.00
2023-04-15T02:41:22.676Z,0.00
2023-04-15T02:42:22.635Z,0.00
2023-04-15T02:43:22.629Z,0.00
2023-04-15T02:44:22.551Z,0.00
2023-04-15T02:45:22.504Z,0.00
2023-04-15T02:46:22.514Z,0.00
2023-04-15T02:47:22.454Z,0.00
2023-04-15T02:48:22.385Z,0.00
2023-04-15T02:49:22.336Z,0.00
2023-04-15T02:50:22.294Z,0.00
2023-04-15T02:51:22.247Z,0.00
2023-04-15T02:52:22.209Z,0.00
2023-04-15T02:53:22.175Z,0.00
2023-04-15T02:54:22.132Z,0.00
2023-04-15T02:55:22.093Z,0.00
2023-04-15T02:56:22.031Z,0.00
2023-04-15T02:57:21.991Z,0.00
2023-04-15T02:58:21.941Z,0.00
2023-04-15T02:59:21.912Z,0.00
2023-04-15T03:00:21.858Z,0.00
2023-04-15T03:01:21.905Z,0.00
2023-04-15T03:02:21.873Z,0.00
2023-04-15T03:03:21.756Z,0.00
2023-04-15T03:04:21.903Z,0.00
2023-04-15T03:05:21.645Z,0.00
2023-04-15T03:06:21.604Z,0.00
2023-04-15T03:07:21.582Z,0.00
2023-04-15T03:08:21.511Z,0.00
2023-04-15T03:09:21.478Z,0.00
2023-04-15T03:10:21.453Z,0.00
2023-04-15T03:11:21.395Z,0.00
2023-04-15T03:12:21.347Z,0.00
2023-04-15T03:13:21.325Z,0.00
2023-04-15T03:14:21.273Z,0.00
2023-04-15T03:15:21.243Z,0.00
2023-04-15T03:16:21.226Z,0.00
2023-04-15T03:17:21.168Z,0.00
2023-04-15T03:18:21.121Z,0.00
2023-04-15T03:19:21.052Z,0.00
2023-04-15T03:20:21.052Z,0.00
2023-04-15T03:21:20.969Z,0.00
2023-04-15T03:22:20.938Z,0.00
2023-04-15T03:23:20.869Z,0.00
2023-04-15T03:24:20.828Z,0.00
2023-04-15T03:25:20.802Z,0.00
2023-04-15T03:26:20.741Z,0.00
2023-04-15T03:27:20.716Z,0.00
2023-04-15T03:28:20.655Z,0.00
2023-04-15T03:29:20.616Z,0.00
2023-04-15T03:30:20.574Z,0.00
2023-04-15T03:31:20.580Z,0.00
2023-04-15T03:32:20.527Z,0.00
2023-04-15T03:33:20.459Z,0.00
2023-04-15T03:34:20.418Z,0.00
2023-04-15T03:35:20.355Z,0.00
2023-04-15T03:36:20.316Z,0.00
2023-04-15T03:37:20.268Z,0.00
2023-04-15T03:38:20.225Z,0.00
2023-04-15T03:39:20.196Z,0.00
2023-04-15T03:40:20.150Z,0.00
2023-04-15T03:41:20.093Z,0.00
2023-04-15T03:42:20.060Z,0.00
2023-04-15T03:43:20.029Z,0.00
2023-04-15T03:44:19.973Z,0.00
2023-04-15T03:45:19.935Z,0.00
2023-04-15T03:46:19.943Z,0.00
2023-04-15T03:47:19.842Z,0.00
2023-04-15T03:48:19.847Z,0.00
2023-04-15T03:49:19.754Z,0.00
2023-04-15T03:50:19.724Z,0.00
2023-04-15T03:51:19.674Z,0.00
2023-04-15T03:52:19.637Z,0.00
2023-04-15T03:53:19.583Z,0.00
2023-04-15T03:54:19.534Z,0.00
2023-04-15T03:55:19.493Z,0.00
2023-04-15T03:56:19.473Z,0.00
2023-04-15T03:57:19.402Z,0.00
2023-04-15T03:58:19.369Z,0.00
2023-04-15T03:59:19.320Z,0.00
2023-04-15T04:00:19.297Z,0.00
2023-04-15T04:01:19.243Z,0.00
2023-04-15T04:02:19.431Z,0.00
2023-04-15T04:03:19.385Z,0.00
2023-04-15T04:04:19.216Z,0.00
2023-04-15T04:05:19.055Z,4.00
2023-04-15T04:06:19.025Z,4.00
2023-04-15T04:07:18.970Z,4.00
2023-04-15T04:08:18.937Z,0.00
2023-04-15T04:09:18.906Z,4.00
2023-04-15T04:10:18.842Z,4.00
2023-04-15T04:11:18.800Z,8.00
2023-04-15T04:12:18.754Z,4.00
2023-04-15T04:13:18.714Z,8.00
2023-04-15T04:14:18.678Z,8.00
2023-04-15T04:15:18.631Z,8.00
2023-04-15T04:16:18.675Z,12.00
2023-04-15T04:17:18.544Z,16.00
2023-04-15T04:18:18.489Z,16.00
2023-04-15T04:19:18.446Z,20.00
2023-04-15T04:20:18.411Z,24.00
2023-04-15T04:21:18.356Z,24.00
2023-04-15T04:22:18.315Z,32.00
2023-04-15T04:23:18.271Z,36.00
2023-04-15T04:24:18.246Z,40.00
2023-04-15T04:25:18.220Z,48.00
2023-04-15T04:26:18.141Z,52.00
2023-04-15T04:27:18.093Z,60.00
2023-04-15T04:28:18.059Z,72.00
2023-04-15T04:29:18.036Z,80.00
2023-04-15T04:30:17.975Z,88.00
2023-04-15T04:31:17.929Z,104.00
2023-04-15T04:32:17.891Z,112.00
2023-04-15T04:33:17.835Z,124.00
2023-04-15T04:34:17.805Z,140.00
2023-04-15T04:35:17.769Z,148.00
2023-04-15T04:36:17.706Z,168.00
2023-04-15T04:37:17.666Z,180.00
2023-04-15T04:38:17.706Z,196.00
2023-04-15T04:39:17.570Z,216.00
2023-04-15T04:40:17.526Z,232.00
2023-04-15T04:41:17.487Z,252.00
2023-04-15T04:42:17.450Z,268.00
2023-04-15T04:43:17.431Z,288.00
2023-04-15T04:44:17.350Z,308.00
2023-04-15T04:45:17.319Z,332.00
2023-04-15T04:46:17.401Z,352.00
2023-04-15T04:47:17.224Z,376.00
2023-04-15T04:48:17.204Z,404.00
2023-04-15T04:49:17.144Z,428.00
2023-04-15T04:50:17.120Z,452.00
2023-04-15T04:51:17.043Z,480.00
2023-04-15T04:52:17.005Z,508.00
2023-04-15T04:53:16.954Z,532.00
2023-04-15T04:54:16.930Z,564.00
2023-04-15T04:55:16.865Z,592.00
2023-04-15T04:56:16.831Z,624.00
2023-04-15T04:57:16.783Z,656.00
2023-04-15T04:58:16.745Z,688.00
2023-04-15T04:59:17.009Z,728.00
2023-04-15T05:00:16.680Z,764.00
2023-04-15T05:01:16.699Z,800.00
2023-04-15T05:02:16.650Z,836.00
2023-04-15T05:03:16.652Z,876.00
2023-04-15T05:04:16.624Z,912.00
2023-04-15T05:05:16.435Z,956.00
2023-04-15T05:06:16.402Z,1004.00
2023-04-15T05:07:16.370Z,1052.00
2023-04-15T05:08:16.302Z,1100.00
2023-04-15T05:09:16.258Z,1148.00
2023-04-15T05:10:16.213Z,1196.00
2023-04-15T05:11:16.170Z,1240.00
2023-04-15T05:12:16.144Z,1292.00
2023-04-15T05:13:16.086Z,1340.00
2023-04-15T05:14:16.041Z,1388.00
2023-04-15T05:15:15.996Z,1440.00
2023-04-15T05:16:16.029Z,1500.00
2023-04-15T05:17:15.913Z,1560.00
2023-04-15T05:18:15.881Z,1616.00
2023-04-15T05:19:15.822Z,1680.00
2023-04-15T05:20:15.814Z,1748.00
2023-04-15T05:21:15.734Z,1824.00
2023-04-15T05:22:15.694Z,1900.00
2023-04-15T05:23:15.647Z,1980.00
2023-04-15T05:24:15.628Z,2068.00
2023-04-15T05:25:15.581Z,2164.00
2023-04-15T05:26:15.521Z,2268.00
2023-04-15T05:27:15.476Z,2380.00
2023-04-15T05:28:15.444Z,2508.00
2023-04-15T05:29:15.398Z,2668.00
2023-04-15T05:30:15.354Z,2848.00
2023-04-15T05:31:15.334Z,3036.00
2023-04-15T05:32:15.257Z,3248.00
2023-04-15T05:33:15.212Z,3548.00
2023-04-15T05:34:15.176Z,4132.00
2023-04-15T05:35:15.141Z,5052.00
2023-04-15T05:36:15.095Z,5804.00
2023-04-15T05:37:15.043Z,6192.00
2023-04-15T05:38:15.002Z,7064.00
2023-04-15T05:39:14.957Z,7360.00
2023-04-15T05:40:14.914Z,8228.00
2023-04-15T05:41:15.258Z,8480.00
2023-04-15T05:42:14.852Z,9048.00
2023-04-15T05:43:14.786Z,9264.00
2023-04-15T05:44:14.749Z,9276.00
2023-04-15T05:45:14.701Z,9732.00
2023-04-15T05:46:14.715Z,10012.00
2023-04-15T05:47:14.613Z,10356.00
2023-04-15T05:48:14.584Z,10712.00
2023-04-15T05:49:14.537Z,10828.00
2023-04-15T05:50:14.503Z,10968.00
2023-04-15T05:51:14.452Z,10924.00
2023-04-15T05:52:14.439Z,11604.00
2023-04-15T05:53:14.386Z,11600.00
2023-04-15T05:54:14.329Z,11272.00
2023-04-15T05:55:14.301Z,10596.00
2023-04-15T05:56:14.275Z,9560.00
2023-04-15T05:57:14.264Z,9248.00
2023-04-15T05:58:14.188Z,9600.00
2023-04-15T05:59:14.138Z,10052.00
2023-04-15T06:00:14.106Z,10032.00
2023-04-15T06:01:14.088Z,9828.00
2023-04-15T06:02:14.072Z,10020.00
2023-04-15T06:03:14.080Z,9712.00
2023-04-15T06:04:14.018Z,10588.00
2023-04-15T06:05:13.896Z,11180.00
2023-04-15T06:06:13.860Z,11108.00
2023-04-15T06:07:13.820Z,10072.00
2023-04-15T06:08:13.794Z,10136.00
2023-04-15T06:09:13.760Z,8728.00
2023-04-15T06:10:13.712Z,8168.00
2023-04-15T06:11:13.663Z,8044.00
2023-04-15T06:12:13.630Z,8476.00
2023-04-15T06:13:13.648Z,8408.00
2023-04-15T06:14:13.584Z,8976.00
2023-04-15T06:15:13.529Z,8916.00
2023-04-15T06:16:13.549Z,8968.00
2023-04-15T06:17:13.439Z,10136.00
2023-04-15T06:18:13.398Z,10444.00
2023-04-15T06:19:13.362Z,10288.00
2023-04-15T06:20:13.417Z,10776.00
2023-04-15T06:21:13.311Z,10092.00
2023-04-15T06:22:13.258Z,9636.00
2023-04-15T06:23:13.207Z,9772.00
2023-04-15T06:24:13.181Z,9964.00
2023-04-15T06:25:13.127Z,10344.00
2023-04-15T06:26:13.114Z,10728.00
2023-04-15T06:27:13.054Z,11652.00
2023-04-15T06:28:13.036Z,13072.00
2023-04-15T06:29:12.979Z,13716.00
2023-04-15T06:30:12.938Z,13760.00
2023-04-15T06:31:12.916Z,13680.00
2023-04-15T06:32:12.878Z,13580.00
2023-04-15T06:33:12.831Z,12932.00
2023-04-15T06:34:12.790Z,13440.00
2023-04-15T06:35:12.751Z,13352.00
2023-04-15T06:36:12.710Z,14064.00
2023-04-15T06:37:12.670Z,14460.00
2023-04-15T06:38:12.659Z,15264.00
2023-04-15T06:39:12.597Z,15296.00
2023-04-15T06:40:12.560Z,14596.00
2023-04-15T06:41:12.521Z,15936.00
2023-04-15T06:42:12.484Z,16544.00
2023-04-15T06:43:12.443Z,17056.00
2023-04-15T06:44:12.421Z,16832.00
2023-04-15T06:45:12.365Z,17024.00
2023-04-15T06:46:12.384Z,17600.00
2023-04-15T06:47:12.300Z,18112.00
2023-04-15T06:48:13.286Z,17888.00
2023-04-15T06:49:12.229Z,18304.00
2023-04-15T06:50:12.203Z,18656.00
2023-04-15T06:51:12.148Z,19136.00
2023-04-15T06:52:12.119Z,18880.00
2023-04-15T06:53:12.073Z,17984.00
2023-04-15T06:54:12.052Z,16320.00
2023-04-15T06:55:12.001Z,14676.00
2023-04-15T06:56:11.981Z,14104.00
2023-04-15T06:57:11.952Z,12916.00
2023-04-15T06:58:11.894Z,11944.00
2023-04-15T06:59:11.860Z,12572.00
2023-04-15T07:00:11.822Z,12720.00
2023-04-15T07:01:11.808Z,12256.00
2023-04-15T07:02:11.781Z,13484.00
2023-04-15T07:03:11.774Z,13768.00
2023-04-15T07:04:11.707Z,13000.00
2023-04-15T07:05:11.655Z,12616.00
2023-04-15T07:06:11.602Z,14048.00
2023-04-15T07:07:11.561Z,14032.00
2023-04-15T07:08:11.544Z,12752.00
2023-04-15T07:09:11.492Z,11904.00
2023-04-15T07:10:11.455Z,11200.00
2023-04-15T07:11:11.467Z,11116.00
2023-04-15T07:12:11.389Z,11372.00
2023-04-15T07:13:11.345Z,11832.00
2023-04-15T07:14:11.312Z,12024.00
2023-04-15T07:15:11.274Z,12136.00
2023-04-15T07:16:11.338Z,12604.00
2023-04-15T07:17:11.320Z,12664.00
2023-04-15T07:18:11.183Z,12900.00
2023-04-15T07:19:11.122Z,13576.00
2023-04-15T07:20:11.097Z,12992.00
2023-04-15T07:21:11.074Z,13836.00
2023-04-15T07:22:11.017Z,14196.00
2023-04-15T07:23:10.985Z,14916.00
2023-04-15T07:24:10.947Z,13764.00
2023-04-15T07:25:10.900Z,13704.00
2023-04-15T07:26:10.888Z,12600.00
2023-04-15T07:27:10.839Z,12720.00
2023-04-15T07:28:10.791Z,13324.00
2023-04-15T07:29:10.771Z,12752.00
2023-04-15T07:30:10.723Z,13164.00
2023-04-15T07:31:10.772Z,12860.00
2023-04-15T07:32:10.648Z,12852.00
2023-04-15T07:33:10.609Z,13872.00
2023-04-15T07:34:10.586Z,14024.00
2023-04-15T07:35:10.540Z,14340.00
2023-04-15T07:36:10.500Z,14412.00
2023-04-15T07:37:10.459Z,15440.00
2023-04-15T07:38:10.452Z,14596.00
2023-04-15T07:39:10.388Z,14776.00
2023-04-15T07:40:10.385Z,14524.00
2023-04-15T07:41:10.321Z,13816.00
2023-04-15T07:42:10.290Z,14008.00
2023-04-15T07:43:10.250Z,13816.00
2023-04-15T07:44:10.221Z,14304.00
2023-04-15T07:45:10.186Z,14780.00
2023-04-15T07:46:10.170Z,14616.00
2023-04-15T07:47:10.109Z,14644.00
2023-04-15T07:48:10.067Z,14720.00
2023-04-15T07:49:10.028Z,14608.00
2023-04-15T07:50:09.994Z,14052.00
2023-04-15T07:51:09.955Z,13388.00
2023-04-15T07:52:09.925Z,13192.00
2023-04-15T07:53:09.891Z,13052.00
2023-04-15T07:54:09.874Z,12600.00
2023-04-15T07:55:09.822Z,13244.00
2023-04-15T07:56:09.778Z,12740.00
2023-04-15T07:57:09.747Z,12440.00
2023-04-15T07:58:09.714Z,12464.00
2023-04-15T07:59:09.669Z,12756.00
2023-04-15T08:00:09.632Z,12960.00
2023-04-15T08:01:09.585Z,13264.00
2023-04-15T08:02:09.626Z,13292.00
2023-04-15T08:03:09.815Z,13572.00
2023-04-15T08:04:09.634Z,13660.00
2023-04-15T08:05:09.464Z,13704.00
2023-04-15T08:06:09.404Z,14096.00
2023-04-15T08:07:09.361Z,14372.00
2023-04-15T08:08:09.324Z,14272.00
2023-04-15T08:09:09.291Z,14100.00
2023-04-15T08:10:09.260Z,14204.00
2023-04-15T08:11:09.262Z,14420.00
2023-04-15T08:12:09.182Z,14580.00
2023-04-15T08:13:09.147Z,14988.00
2023-04-15T08:14:09.100Z,15268.00
2023-04-15T08:15:09.069Z,15320.00
2023-04-15T08:16:09.096Z,15460.00
2023-04-15T08:17:16.875Z,15804.00
2023-04-15T08:18:08.951Z,15996.00
2023-04-15T08:19:08.916Z,16544.00
2023-04-15T08:20:08.877Z,16992.00
2023-04-15T08:21:08.840Z,17056.00
2023-04-15T08:22:10.889Z,17184.00
2023-04-15T08:23:08.769Z,17184.00
2023-04-15T08:24:08.732Z,17088.00
2023-04-15T08:25:08.705Z,17152.00
2023-04-15T08:26:09.375Z,17376.00
2023-04-15T08:27:08.625Z,16384.00
2023-04-15T08:28:08.599Z,15908.00
2023-04-15T08:29:08.546Z,15044.00
2023-04-15T08:30:08.530Z,14096.00
2023-04-15T08:31:08.510Z,13384.00
2023-04-15T08:32:08.446Z,13664.00
2023-04-15T08:33:08.400Z,13304.00
2023-04-15T08:34:08.393Z,13132.00
2023-04-15T08:35:08.328Z,13716.00
2023-04-15T08:36:08.293Z,14500.00
2023-04-15T08:37:08.270Z,14460.00
2023-04-15T08:38:08.220Z,14628.00
2023-04-15T08:39:08.185Z,14488.00
2023-04-15T08:40:08.176Z,14204.00
2023-04-15T08:41:08.126Z,15016.00
2023-04-15T08:42:08.072Z,15536.00
2023-04-15T08:43:08.035Z,16448.00
2023-04-15T08:44:08.163Z,16992.00
2023-04-15T08:45:07.965Z,17056.00
2023-04-15T08:46:07.948Z,17152.00
2023-04-15T08:47:07.979Z,16768.00
2023-04-15T08:48:07.851Z,16136.00
2023-04-15T08:49:07.839Z,15572.00
2023-04-15T08:50:07.787Z,15088.00
2023-04-15T08:51:07.770Z,14672.00
2023-04-15T08:52:07.711Z,14548.00
2023-04-15T08:53:07.685Z,14380.00
2023-04-15T08:54:07.680Z,14324.00
2023-04-15T08:55:07.611Z,14256.00
2023-04-15T08:56:07.569Z,14100.00
2023-04-15T08:57:07.538Z,14128.00
2023-04-15T08:58:07.502Z,14236.00
2023-04-15T08:59:07.462Z,14220.00
2023-04-15T09:00:07.428Z,13920.00
2023-04-15T09:01:07.430Z,13984.00
2023-04-15T09:02:07.416Z,14172.00
2023-04-15T09:03:07.356Z,14220.00
2023-04-15T09:04:07.288Z,14800.00
2023-04-15T09:05:08.324Z,16544.00
2023-04-15T09:06:07.202Z,16192.00
2023-04-15T09:07:07.167Z,16192.00
2023-04-15T09:08:07.158Z,16120.00
2023-04-15T09:09:07.108Z,17088.00
2023-04-15T09:10:07.057Z,18752.00
2023-04-15T09:11:07.031Z,20736.00
2023-04-15T09:12:06.981Z,20160.00
2023-04-15T09:13:07.000Z,19008.00
2023-04-15T09:14:06.932Z,16640.00
2023-04-15T09:15:06.906Z,16672.00
2023-04-15T09:16:06.897Z,17120.00
2023-04-15T09:17:06.994Z,15840.00
2023-04-15T09:18:06.789Z,14360.00
2023-04-15T09:19:06.737Z,14512.00
2023-04-15T09:20:06.696Z,16268.00
2023-04-15T09:21:06.673Z,15520.00
2023-04-15T09:22:06.660Z,17664.00
2023-04-15T09:23:06.666Z,19168.00
2023-04-15T09:24:06.562Z,18464.00
2023-04-15T09:25:06.530Z,16736.00
2023-04-15T09:26:06.505Z,15508.00
2023-04-15T09:27:06.480Z,15324.00
2023-04-15T09:28:06.416Z,16236.00
2023-04-15T09:29:06.394Z,15688.00
2023-04-15T09:30:06.348Z,15260.00
2023-04-15T09:31:06.336Z,16864.00
2023-04-15T09:32:06.272Z,16232.00
2023-04-15T09:33:06.302Z,15732.00
2023-04-15T09:34:06.222Z,16456.00
2023-04-15T09:35:06.186Z,18016.00
2023-04-15T09:36:06.152Z,15244.00
2023-04-15T09:37:07.393Z,19360.00
2023-04-15T09:38:06.137Z,19744.00
2023-04-15T09:39:06.036Z,20672.00
2023-04-15T09:40:06.007Z,20800.00
2023-04-15T09:41:05.967Z,20992.00
2023-04-15T09:42:05.974Z,21504.00
2023-04-15T09:43:05.909Z,20992.00
2023-04-15T09:44:05.854Z,18528.00
2023-04-15T09:45:05.823Z,16352.00
2023-04-15T09:46:05.809Z,12092.00
2023-04-15T09:47:05.754Z,10608.00
2023-04-15T09:48:05.769Z,10008.00
2023-04-15T09:49:05.689Z,11456.00
2023-04-15T09:50:05.650Z,9924.00
2023-04-15T09:51:05.634Z,10728.00
2023-04-15T09:52:06.642Z,11980.00
2023-04-15T09:53:05.595Z,12992.00
2023-04-15T09:54:05.515Z,14180.00
2023-04-15T09:55:05.486Z,20960.00
2023-04-15T09:56:05.455Z,15868.00
2023-04-15T09:57:05.460Z,22976.00
2023-04-15T09:58:05.382Z,23584.00
2023-04-15T09:59:05.349Z,24160.00
2023-04-15T10:00:05.313Z,15520.00
2023-04-15T10:01:05.330Z,17696.00
2023-04-15T10:02:05.317Z,20608.00
2023-04-15T10:03:05.404Z,23936.00
2023-04-15T10:04:05.462Z,15376.00
2023-04-15T10:05:05.141Z,14052.00
2023-04-15T10:06:05.100Z,15036.00
2023-04-15T10:07:05.103Z,25408.00
2023-04-15T10:08:05.035Z,16228.00
2023-04-15T10:09:05.024Z,14808.00
2023-04-15T10:10:04.967Z,14360.00
2023-04-15T10:11:05.028Z,24256.00
2023-04-15T10:12:04.901Z,16704.00
2023-04-15T10:13:04.868Z,18080.00
2023-04-15T10:14:05.015Z,12412.00
2023-04-15T10:15:04.808Z,18400.00
2023-04-15T10:16:04.773Z,12848.00
2023-04-15T10:17:04.741Z,13208.00
2023-04-15T10:18:04.740Z,21760.00
2023-04-15T10:19:04.676Z,12924.00
2023-04-15T10:20:04.702Z,13560.00
2023-04-15T10:21:04.614Z,13592.00
2023-04-15T10:22:04.570Z,13588.00
2023-04-15T10:23:04.896Z,15312.00
2023-04-15T10:24:04.637Z,15044.00
2023-04-15T10:25:04.459Z,16084.00
2023-04-15T10:26:04.433Z,16960.00
2023-04-15T10:27:04.414Z,16444.00
2023-04-15T10:28:04.358Z,15756.00
2023-04-15T10:29:04.320Z,16896.00
2023-04-15T10:30:04.283Z,17888.00
2023-04-15T10:31:04.360Z,16832.00
2023-04-15T10:32:04.219Z,14008.00
2023-04-15T10:33:04.194Z,13076.00
2023-04-15T10:34:04.418Z,12560.00
2023-04-15T10:35:04.113Z,12016.00
2023-04-15T10:36:04.079Z,13744.00
2023-04-15T10:37:04.061Z,15504.00
2023-04-15T10:38:04.021Z,19168.00
2023-04-15T10:39:03.978Z,25440.00
2023-04-15T10:40:03.944Z,21536.00
2023-04-15T10:41:03.906Z,22112.00
2023-04-15T10:42:03.869Z,22368.00
2023-04-15T10:43:03.831Z,12576.00
2023-04-15T10:44:04.226Z,10700.00
2023-04-15T10:45:03.775Z,9120.00
2023-04-15T10:46:03.786Z,8400.00
2023-04-15T10:47:03.690Z,8028.00
2023-04-15T10:48:03.966Z,8156.00
2023-04-15T10:49:03.627Z,9424.00
2023-04-15T10:50:03.613Z,9100.00
2023-04-15T10:51:03.565Z,10416.00
2023-04-15T10:52:03.512Z,9724.00
2023-04-15T10:53:03.477Z,10480.00
2023-04-15T10:54:03.453Z,10672.00
2023-04-15T10:55:03.427Z,11300.00
2023-04-15T10:56:03.387Z,12104.00
2023-04-15T10:57:03.355Z,12000.00
2023-04-15T10:58:03.328Z,12148.00
2023-04-15T10:59:03.261Z,11832.00
2023-04-15T11:00:03.232Z,10404.00
2023-04-15T11:01:03.202Z,9640.00
2023-04-15T11:02:03.292Z,9316.00
2023-04-15T11:03:03.217Z,9280.00
2023-04-15T11:04:03.606Z,8724.00
2023-04-15T11:05:03.050Z,7316.00
2023-04-15T11:06:03.013Z,6868.00
2023-04-15T11:07:02.970Z,8192.00
2023-04-15T11:08:02.954Z,9924.00
2023-04-15T11:09:02.918Z,9636.00
2023-04-15T11:10:02.869Z,8392.00
2023-04-15T11:11:02.828Z,8712.00
2023-04-15T11:12:02.787Z,10068.00
2023-04-15T11:13:02.773Z,11012.00
2023-04-15T11:14:02.867Z,11764.00
2023-04-15T11:15:02.716Z,12308.00
2023-04-15T11:16:02.774Z,12688.00
2023-04-15T11:17:02.612Z,13304.00
2023-04-15T11:18:02.622Z,13560.00
2023-04-15T11:19:02.529Z,13428.00
2023-04-15T11:20:02.570Z,13172.00
2023-04-15T11:21:02.471Z,13032.00
2023-04-15T11:22:02.440Z,16864.00
2023-04-15T11:23:13.809Z,12920.00
2023-04-15T11:24:03.896Z,14204.00
2023-04-15T11:25:02.377Z,15724.00
2023-04-15T11:26:02.300Z,13484.00
2023-04-15T11:27:02.231Z,13256.00
2023-04-15T11:28:02.219Z,14112.00
2023-04-15T11:29:02.370Z,15312.00
2023-04-15T11:30:02.131Z,23872.00
2023-04-15T11:31:02.098Z,15672.00
2023-04-15T11:32:02.067Z,15644.00
2023-04-15T11:33:02.073Z,18176.00
2023-04-15T11:34:02.008Z,17856.00
2023-04-15T11:35:01.980Z,10420.00
2023-04-15T11:36:01.926Z,9136.00
2023-04-15T11:37:01.856Z,7740.00
2023-04-15T11:38:01.862Z,6972.00
2023-04-15T11:39:01.818Z,6908.00
2023-04-15T11:40:01.779Z,7412.00
2023-04-15T11:41:01.719Z,8180.00
2023-04-15T11:42:01.707Z,8940.00
2023-04-15T11:43:01.648Z,9192.00
2023-04-15T11:44:01.876Z,8156.00
2023-04-15T11:45:01.580Z,8120.00
2023-04-15T11:46:01.590Z,7916.00
2023-04-15T11:47:01.560Z,7752.00
2023-04-15T11:48:01.479Z,8924.00
2023-04-15T11:49:01.480Z,9868.00
2023-04-15T11:50:01.400Z,11408.00
2023-04-15T11:51:01.371Z,11048.00
2023-04-15T11:52:01.317Z,9936.00
2023-04-15T11:53:01.281Z,8772.00
2023-04-15T11:54:01.461Z,8276.00
2023-04-15T11:55:01.224Z,7792.00
2023-04-15T11:56:01.171Z,8584.00
2023-04-15T11:57:01.124Z,10496.00
2023-04-15T11:58:01.093Z,12672.00
2023-04-15T11:59:01.078Z,12556.00
2023-04-15T12:00:01.024Z,12508.00
2023-04-15T12:01:00.988Z,11872.00
2023-04-15T12:02:01.022Z,10436.00
2023-04-15T12:03:01.022Z,8724.00
2023-04-15T12:04:00.973Z,6508.00
2023-04-15T12:05:00.842Z,5916.00
2023-04-15T12:06:00.797Z,6232.00
2023-04-15T12:07:00.769Z,6736.00
2023-04-15T12:08:00.734Z,6452.00
2023-04-15T12:09:00.669Z,5788.00
2023-04-15T12:10:00.655Z,6144.00
2023-04-15T12:11:00.606Z,6888.00
2023-04-15T12:12:00.577Z,7196.00
2023-04-15T12:13:00.523Z,7264.00
2023-04-15T12:14:00.487Z,6968.00
2023-04-15T12:15:00.459Z,6544.00
2023-04-15T12:16:00.447Z,6376.00
2023-04-15T12:17:00.556Z,5768.00
2023-04-15T12:18:00.396Z,5548.00
2023-04-15T12:19:00.301Z,5564.00
2023-04-15T12:20:00.257Z,5664.00
2023-04-15T12:21:00.224Z,5876.00